createdAt,value
2023-04-15T00:01:51.083Z,61.58
2023-04-15T00:04:17.647Z,62.22
2023-04-15T00:06:51.383Z,64.87
2023-04-15T00:09:17.775Z,62.63
2023-04-15T00:11:44.174Z,61.77
2023-04-15T00:14:10.690Z,63.20
2023-04-15T00:16:37.253Z,63.38
2023-04-15T00:19:03.759Z,62.53
2023-04-15T00:21:30.693Z,62.91
2023-04-15T00:23:57.363Z,62.50
2023-04-15T00:26:23.782Z,61.21
2023-04-15T00:28:50.208Z,63.10
2023-04-15T00:31:16.826Z,62.37
2023-04-15T00:33:43.646Z,62.09
2023-04-15T00:36:11.166Z,62.23
2023-04-15T00:38:38.388Z,62.33
2023-04-15T00:41:05.260Z,62.53
2023-04-15T00:43:31.663Z,66.22
2023-04-15T00:45:59.530Z,64.98
2023-04-15T00:48:27.894Z,64.41
2023-04-15T00:50:54.425Z,69.90
2023-04-15T00:53:20.830Z,66.09
2023-04-15T00:55:47.231Z,69.60
2023-04-15T00:58:14.111Z,69.19
2023-04-15T01:00:41.470Z,65.85
2023-04-15T01:03:08.790Z,65.29
2023-04-15T01:05:36.515Z,66.07
2023-04-15T01:08:03.624Z,65.28
2023-04-15T01:10:31.711Z,65.28
2023-04-15T01:12:58.370Z,66.89
2023-04-15T01:15:25.073Z,67.73
2023-04-15T01:17:51.643Z,65.75
2023-04-15T01:20:18.429Z,65.81
2023-04-15T01:22:45.380Z,66.03
2023-04-15T01:25:17.489Z,65.98
2023-04-15T01:27:44.154Z,65.96
2023-04-15T01:30:11.511Z,67.53
2023-04-15T01:32:38.271Z,66.98
2023-04-15T01:35:05.027Z,67.02
2023-04-15T01:37:32.341Z,66.87
2023-04-15T01:39:58.768Z,67.04
2023-04-15T01:42:25.318Z,67.79
2023-04-15T01:44:51.908Z,69.46
2023-04-15T01:47:18.557Z,67.26
2023-04-15T01:49:45.016Z,67.34
2023-04-15T01:52:11.443Z,67.68
2023-04-15T01:54:37.830Z,68.11
2023-04-15T01:57:05.514Z,67.87
2023-04-15T01:59:32.118Z,67.60
2023-04-15T02:01:58.766Z,67.99
2023-04-15T02:04:25.218Z,67.31
2023-04-15T02:06:51.642Z,68.08
2023-04-15T02:09:18.046Z,68.37
2023-04-15T02:11:44.852Z,69.54
2023-04-15T02:14:11.477Z,69.00
2023-04-15T02:16:37.944Z,67.79
2023-04-15T02:19:04.449Z,69.58
2023-04-15T02:21:30.941Z,68.45
2023-04-15T02:23:57.452Z,69.39
2023-04-15T02:26:25.301Z,68.77
2023-04-15T02:28:51.768Z,68.12
2023-04-15T02:31:18.356Z,68.27
2023-04-15T02:33:45.317Z,69.56
2023-04-15T02:36:12.394Z,68.77
2023-04-15T02:38:40.746Z,68.74
2023-04-15T02:41:07.159Z,69.26
2023-04-15T02:43:33.568Z,67.48
2023-04-15T02:46:00.062Z,67.86
2023-04-15T02:48:27.006Z,69.72
2023-04-15T02:50:53.473Z,69.77
2023-04-15T02:53:20.730Z,69.01
2023-04-15T02:55:47.172Z,69.07
2023-04-15T02:58:13.622Z,69.44
2023-04-15T03:00:40.178Z,70.61
2023-04-15T03:03:07.039Z,70.01
2023-04-15T03:05:33.681Z,69.50
2023-04-15T03:08:01.301Z,69.73
2023-04-15T03:10:27.921Z,69.77
2023-04-15T03:12:54.326Z,70.00
2023-04-15T03:15:21.143Z,70.54
2023-04-15T03:17:49.497Z,70.38
2023-04-15T03:20:16.947Z,71.69
2023-04-15T03:22:43.544Z,71.08
2023-04-15T03:25:10.076Z,72.39
2023-04-15T03:27:36.665Z,71.64
2023-04-15T03:30:03.348Z,71.00
2023-04-15T03:32:29.836Z,70.73
2023-04-15T03:34:56.285Z,70.79
2023-04-15T03:37:22.721Z,70.84
2023-04-15T03:39:49.163Z,71.20
2023-04-15T03:42:15.707Z,72.54
2023-04-15T03:44:42.204Z,71.67
2023-04-15T03:47:08.616Z,73.33
2023-04-15T03:49:35.659Z,73.59
2023-04-15T03:52:02.097Z,72.06
2023-04-15T03:54:28.555Z,73.19
2023-04-15T03:56:54.974Z,72.62
2023-04-15T03:59:21.451Z,73.20
2023-04-15T04:01:47.937Z,72.24
2023-04-15T04:04:14.579Z,71.99
2023-04-15T04:06:41.390Z,73.12
2023-04-15T04:09:07.808Z,71.80
2023-04-15T04:11:34.322Z,74.45
2023-04-15T04:14:00.745Z,73.70
2023-04-15T04:16:27.249Z,72.82
2023-04-15T04:18:53.784Z,72.73
2023-04-15T04:21:21.312Z,73.25
2023-04-15T04:23:47.815Z,73.06
2023-04-15T04:26:14.299Z,73.13
2023-04-15T04:28:40.969Z,74.08
2023-04-15T04:31:07.842Z,73.85
2023-04-15T04:33:34.492Z,72.75
2023-04-15T04:36:00.947Z,75.00
2023-04-15T04:38:27.378Z,73.49
2023-04-15T04:40:53.991Z,74.57
2023-04-15T04:43:20.423Z,74.30
2023-04-15T04:45:47.462Z,73.33
2023-04-15T04:48:13.911Z,75.21
2023-04-15T04:50:40.389Z,79.12
2023-04-15T04:53:06.838Z,75.15
2023-04-15T04:55:33.284Z,75.86
2023-04-15T04:57:59.683Z,77.85
2023-04-15T05:00:26.186Z,77.21
2023-04-15T05:02:52.698Z,75.52
2023-04-15T05:05:19.201Z,80.09
2023-04-15T05:07:45.666Z,77.02
2023-04-15T05:10:12.106Z,76.59
2023-04-15T05:12:38.671Z,75.58
2023-04-15T05:15:06.432Z,74.60
2023-04-15T05:17:35.142Z,75.23
2023-04-15T05:20:02.511Z,75.85
2023-04-15T05:22:29.088Z,74.78
2023-04-15T05:24:55.940Z,76.27
2023-04-15T05:27:23.976Z,74.58
2023-04-15T05:29:50.544Z,76.31
2023-04-15T05:32:17.398Z,76.07
2023-04-15T05:34:43.886Z,75.85
2023-04-15T05:37:10.440Z,75.04
2023-04-15T05:39:36.898Z,75.30
2023-04-15T05:42:03.497Z,74.36
2023-04-15T05:44:30.059Z,75.24
2023-04-15T05:46:56.860Z,75.11
2023-04-15T05:49:23.523Z,75.53
2023-04-15T05:51:50.047Z,74.96
2023-04-15T05:54:19.283Z,74.54
2023-04-15T05:56:46.542Z,75.64
2023-04-15T05:59:13.111Z,74.73
2023-04-15T06:01:40.032Z,73.82
2023-04-15T06:04:06.809Z,74.68
2023-04-15T06:06:33.385Z,74.04
2023-04-15T06:08:59.934Z,74.33
2023-04-15T06:11:27.273Z,74.67
2023-04-15T06:13:53.719Z,77.94
2023-04-15T06:16:20.200Z,76.10
2023-04-15T06:18:46.616Z,74.63
2023-04-15T06:21:13.128Z,75.43
2023-04-15T06:23:41.150Z,75.23
2023-04-15T06:26:07.940Z,78.54
2023-04-15T06:28:34.396Z,76.44
2023-04-15T06:31:01.921Z,76.76
2023-04-15T06:33:28.523Z,75.13
2023-04-15T06:35:55.915Z,76.94
2023-04-15T06:38:22.382Z,76.38
2023-04-15T06:40:48.836Z,75.63
2023-04-15T06:43:15.387Z,76.19
2023-04-15T06:45:41.880Z,75.07
2023-04-15T06:48:08.346Z,76.51
2023-04-15T06:50:35.981Z,75.95
2023-04-15T06:53:03.062Z,78.86
2023-04-15T06:55:29.622Z,77.23
2023-04-15T06:57:56.265Z,76.86
2023-04-15T07:00:22.809Z,75.43
2023-04-15T07:02:49.321Z,75.06
2023-04-15T07:05:16.008Z,74.46
2023-04-15T07:07:42.715Z,75.70
2023-04-15T07:10:09.904Z,73.86
2023-04-15T07:12:36.538Z,74.10
2023-04-15T07:15:03.695Z,78.58
2023-04-15T07:17:30.269Z,77.19
2023-04-15T07:19:56.991Z,75.19
2023-04-15T07:22:23.439Z,74.50
2023-04-15T07:24:49.885Z,74.13
2023-04-15T07:27:17.459Z,73.86
2023-04-15T07:29:43.860Z,75.72
2023-04-15T07:32:10.825Z,77.91
2023-04-15T07:34:37.947Z,74.03
2023-04-15T07:37:04.427Z,73.94
2023-04-15T07:39:31.114Z,74.10
2023-04-15T07:41:59.043Z,76.40
2023-04-15T07:44:26.967Z,75.88
2023-04-15T07:46:53.769Z,74.01
2023-04-15T07:49:21.308Z,73.91
2023-04-15T07:51:49.067Z,74.75
2023-04-15T07:54:15.748Z,75.15
2023-04-15T07:56:42.192Z,74.08
2023-04-15T07:59:09.859Z,74.98
2023-04-15T08:01:36.789Z,74.74
2023-04-15T08:04:03.832Z,73.48
2023-04-15T08:06:30.849Z,73.33
2023-04-15T08:08:57.547Z,74.54
2023-04-15T08:11:24.542Z,73.97
2023-04-15T08:13:52.058Z,76.41
2023-04-15T08:16:21.273Z,74.16
2023-04-15T08:18:48.864Z,74.10
2023-04-15T08:21:16.370Z,74.78
2023-04-15T08:23:43.710Z,73.85
2023-04-15T08:26:10.262Z,73.99
2023-04-15T08:28:39.201Z,75.70
2023-04-15T08:31:06.309Z,74.10
2023-04-15T08:33:32.853Z,73.97
2023-04-15T08:35:59.254Z,73.06
2023-04-15T08:38:25.974Z,75.35
2023-04-15T08:40:52.528Z,78.59
2023-04-15T08:43:26.284Z,74.87
2023-04-15T08:46:08.642Z,76.81
2023-04-15T08:48:38.402Z,76.42
2023-04-15T08:51:05.223Z,80.10
2023-04-15T08:53:31.723Z,81.84
2023-04-15T08:56:03.341Z,79.65
2023-04-15T08:58:30.081Z,76.96
2023-04-15T09:00:57.460Z,81.69
2023-04-15T09:03:24.899Z,84.47
2023-04-15T09:05:53.251Z,82.46
2023-04-15T09:08:19.869Z,78.81
2023-04-15T09:10:46.414Z,77.99
2023-04-15T09:13:13.556Z,78.03
2023-04-15T09:15:40.074Z,81.04
2023-04-15T09:18:07.028Z,77.68
2023-04-15T09:20:42.279Z,79.82
2023-04-15T09:23:14.167Z,77.85
2023-04-15T09:25:44.835Z,79.84
2023-04-15T09:28:11.453Z,77.12
2023-04-15T09:30:38.008Z,78.91
2023-04-15T09:33:08.298Z,81.70
2023-04-15T09:35:38.166Z,81.14
2023-04-15T09:38:07.271Z,78.64
2023-04-15T09:40:41.193Z,77.52
2023-04-15T09:43:09.213Z,82.19
2023-04-15T09:45:36.439Z,79.38
2023-04-15T09:48:16.265Z,79.36
2023-04-15T09:50:43.944Z,79.78
2023-04-15T09:53:14.245Z,77.12
2023-04-15T09:56:27.965Z,76.27
2023-04-15T09:58:57.212Z,75.08
2023-04-15T10:01:23.698Z,75.49
2023-04-15T10:03:51.518Z,74.47
2023-04-15T10:06:18.274Z,76.89
2023-04-15T10:08:46.202Z,76.37
2023-04-15T10:11:12.846Z,81.29
2023-04-15T10:13:39.891Z,80.42
2023-04-15T10:16:11.782Z,79.68
2023-04-15T10:18:43.000Z,82.81
2023-04-15T10:21:10.167Z,78.03
2023-04-15T10:23:36.804Z,78.05
2023-04-15T10:26:04.914Z,77.72
2023-04-15T10:28:31.680Z,77.98
2023-04-15T10:30:59.685Z,80.42
2023-04-15T10:33:27.862Z,82.14
2023-04-15T10:35:55.893Z,81.01
2023-04-15T10:38:36.658Z,79.07
2023-04-15T10:41:17.962Z,76.71
2023-04-15T10:43:53.617Z,80.98
2023-04-15T10:46:23.642Z,82.39
2023-04-15T10:48:52.332Z,80.11
2023-04-15T10:51:32.242Z,76.64
2023-04-15T10:54:02.119Z,77.30
2023-04-15T10:56:30.154Z,78.35
2023-04-15T10:58:59.180Z,81.49
2023-04-15T11:01:56.598Z,76.88
2023-04-15T11:04:58.713Z,77.14
2023-04-15T11:07:52.933Z,78.75
2023-04-15T11:10:25.565Z,80.78
2023-04-15T11:12:54.166Z,79.40
2023-04-15T11:15:30.301Z,81.52
2023-04-15T11:17:58.150Z,80.59
2023-04-15T11:20:25.206Z,80.95
2023-04-15T11:23:13.006Z,80.68
2023-04-15T11:25:40.901Z,86.06
2023-04-15T11:28:10.170Z,81.75
2023-04-15T11:30:37.938Z,83.24
2023-04-15T11:33:14.579Z,80.70
2023-04-15T11:35:42.244Z,80.65
2023-04-15T11:38:11.774Z,80.76
2023-04-15T11:40:38.853Z,77.82
2023-04-15T11:43:09.015Z,77.01
2023-04-15T11:45:36.970Z,76.83
2023-04-15T11:48:11.811Z,78.12
2023-04-15T11:50:42.306Z,79.75
2023-04-15T11:53:13.362Z,79.87
2023-04-15T11:55:48.628Z,77.01
2023-04-15T11:58:23.796Z,79.10
2023-04-15T12:00:54.089Z,80.74
2023-04-15T12:03:43.708Z,79.77
2023-04-15T12:06:19.709Z,80.12
2023-04-15T12:09:21.730Z,78.85
2023-04-15T12:11:50.005Z,78.43
2023-04-15T12:14:25.320Z,77.89
2023-04-15T12:16:58.428Z,77.21
2023-04-15T12:19:28.533Z,77.46
2023-04-15T12:22:06.614Z,82.64
2023-04-15T12:24:34.406Z,76.24
2023-04-15T12:27:14.522Z,77.79
2023-04-15T12:29:43.129Z,77.46
2023-04-15T12:32:10.744Z,77.46
2023-04-15T12:34:41.678Z,76.20
2023-04-15T12:37:10.778Z,74.83
2023-04-15T12:39:39.845Z,79.44
2023-04-15T12:42:07.047Z,80.73
2023-04-15T12:44:33.960Z,76.20
2023-04-15T12:47:00.722Z,75.43
2023-04-15T12:49:27.791Z,74.04
2023-04-15T12:51:56.987Z,74.58
2023-04-15T12:54:23.659Z,74.82
2023-04-15T12:56:51.413Z,72.42
2023-04-15T12:59:18.710Z,72.55
2023-04-15T13:01:46.630Z,75.75
2023-04-15T13:04:13.401Z,73.43
2023-04-15T13:06:39.975Z,71.87
2023-04-15T13:09:06.848Z,76.36
2023-04-15T13:11:34.246Z,72.44
2023-04-15T13:14:02.203Z,73.68
2023-04-15T13:16:28.960Z,72.82
2023-04-15T13:18:55.493Z,71.50
2023-04-15T13:21:22.050Z,70.83
2023-04-15T13:23:50.838Z,71.66
2023-04-15T13:26:18.526Z,72.54
2023-04-15T13:28:45.703Z,74.27
2023-04-15T13:31:12.476Z,70.31
2023-04-15T13:33:38.971Z,71.59
2023-04-15T13:36:05.818Z,71.91
2023-04-15T13:38:32.670Z,69.19
2023-04-15T13:40:59.170Z,69.14
2023-04-15T13:43:26.362Z,69.93
2023-04-15T13:45:52.835Z,68.85
2023-04-15T13:48:19.315Z,69.66
2023-04-15T13:50:45.838Z,69.83
2023-04-15T13:53:12.983Z,69.57
2023-04-15T13:55:41.686Z,68.14
2023-04-15T13:58:08.923Z,68.79
2023-04-15T14:00:35.459Z,68.25
2023-04-15T14:03:01.997Z,70.46
2023-04-15T14:05:28.578Z,68.44
2023-04-15T14:07:55.187Z,68.90
2023-04-15T14:10:21.603Z,69.28
2023-04-15T14:12:47.986Z,71.60
2023-04-15T14:15:14.435Z,70.54
2023-04-15T14:17:42.324Z,69.07
2023-04-15T14:20:09.528Z,69.34
2023-04-15T14:22:36.056Z,68.98
2023-04-15T14:25:02.731Z,68.71
2023-04-15T14:27:29.207Z,68.75
2023-04-15T14:29:55.709Z,68.95
2023-04-15T14:32:22.171Z,68.52
2023-04-15T14:34:48.606Z,68.63
2023-04-15T14:37:15.091Z,68.89
2023-04-15T14:39:41.543Z,69.49
2023-04-15T14:42:07.993Z,70.41
2023-04-15T14:44:34.451Z,69.68
2023-04-15T14:47:00.917Z,69.16
2023-04-15T14:49:27.527Z,70.16
2023-04-15T14:51:53.925Z,70.71
2023-04-15T14:54:21.930Z,69.96
2023-04-15T14:56:48.772Z,69.53
2023-04-15T14:59:15.319Z,70.36
2023-04-15T15:01:41.883Z,70.89
2023-04-15T15:04:10.332Z,70.15
2023-04-15T15:06:36.963Z,70.74
2023-04-15T15:09:03.914Z,70.31
2023-04-15T15:11:30.726Z,70.03
2023-04-15T15:13:58.309Z,70.14
2023-04-15T15:16:25.615Z,70.44
2023-04-15T15:18:52.165Z,70.88
2023-04-15T15:21:18.741Z,71.42
2023-04-15T15:23:45.908Z,74.62
2023-04-15T15:26:12.594Z,78.90
2023-04-15T15:28:39.301Z,80.66
2023-04-15T15:31:05.931Z,80.92
2023-04-15T15:33:32.746Z,82.00
2023-04-15T15:35:59.431Z,84.49
2023-04-15T15:38:26.283Z,81.37
2023-04-15T15:40:52.738Z,81.24
2023-04-15T15:43:19.207Z,81.09
2023-04-15T15:45:45.736Z,82.46
2023-04-15T15:48:12.309Z,81.02
2023-04-15T15:50:38.903Z,79.25
2023-04-15T15:53:05.367Z,84.02
2023-04-15T15:55:31.808Z,81.31
2023-04-15T15:57:58.268Z,82.05
2023-04-15T16:00:24.837Z,83.25
2023-04-15T16:03:06.953Z,82.82
2023-04-15T16:05:35.146Z,81.30
2023-04-15T16:08:01.847Z,80.46
2023-04-15T16:10:28.866Z,80.82
2023-04-15T16:12:55.700Z,81.66
2023-04-15T16:15:23.363Z,81.36
2023-04-15T16:17:49.894Z,80.83
2023-04-15T16:20:16.657Z,81.10
2023-04-15T16:22:43.217Z,81.74
2023-04-15T16:25:09.791Z,81.77
2023-04-15T16:27:50.328Z,83.76
2023-04-15T16:30:23.089Z,82.02
2023-04-15T16:32:49.552Z,79.39
2023-04-15T16:35:16.764Z,76.40
2023-04-15T16:37:43.246Z,79.25
2023-04-15T16:40:10.155Z,81.04
2023-04-15T16:42:36.947Z,82.18
2023-04-15T16:45:03.576Z,79.52
2023-04-15T16:47:30.047Z,75.48
2023-04-15T16:49:56.411Z,79.97
2023-04-15T16:52:22.811Z,79.57
2023-04-15T16:54:49.188Z,78.94
2023-04-15T16:57:15.808Z,78.68
2023-04-15T16:59:42.245Z,78.32
2023-04-15T17:02:12.311Z,79.58
2023-04-15T17:04:39.716Z,77.71
2023-04-15T17:07:06.705Z,75.57
2023-04-15T17:09:33.116Z,75.22
2023-04-15T17:11:59.647Z,75.92
2023-04-15T17:14:28.600Z,76.77
2023-04-15T17:16:55.648Z,76.90
2023-04-15T17:19:22.160Z,75.30
2023-04-15T17:21:48.635Z,73.76
2023-04-15T17:24:15.049Z,75.76
2023-04-15T17:26:41.477Z,73.33
2023-04-15T17:29:07.937Z,72.57
2023-04-15T17:31:34.480Z,72.10
2023-04-15T17:34:08.708Z,71.33
2023-04-15T17:36:37.423Z,69.60
2023-04-15T17:39:04.565Z,71.33
2023-04-15T17:41:31.222Z,71.28
2023-04-15T17:43:57.629Z,72.42
2023-04-15T17:46:24.102Z,71.02
2023-04-15T17:48:50.559Z,70.72
2023-04-15T17:51:17.132Z,72.73
2023-04-15T17:53:43.539Z,69.88
2023-04-15T17:56:09.969Z,70.37
2023-04-15T17:58:36.413Z,68.61
2023-04-15T18:01:02.872Z,68.91
2023-04-15T18:03:29.515Z,69.64
2023-04-15T18:05:56.456Z,67.88
2023-04-15T18:08:23.055Z,68.58
2023-04-15T18:10:49.567Z,70.11
2023-04-15T18:13:16.202Z,71.79
2023-04-15T18:15:44.602Z,71.53
2023-04-15T18:18:12.713Z,73.71
2023-04-15T18:20:39.126Z,70.75
2023-04-15T18:23:05.630Z,69.38
2023-04-15T18:25:33.851Z,67.49
2023-04-15T18:28:00.448Z,68.68
2023-04-15T18:30:26.881Z,75.89
2023-04-15T18:32:53.357Z,75.00
2023-04-15T18:35:20.691Z,72.00
2023-04-15T18:37:47.187Z,72.70
2023-04-15T18:40:15.778Z,73.25
2023-04-15T18:42:42.168Z,73.24
2023-04-15T18:45:08.906Z,73.25
2023-04-15T18:47:35.379Z,71.49
2023-04-15T18:50:01.914Z,74.23
2023-04-15T18:52:29.374Z,74.15
2023-04-15T18:54:55.809Z,72.82
2023-04-15T18:57:23.683Z,77.53
2023-04-15T18:59:55.125Z,75.07
2023-04-15T19:02:21.635Z,75.98
2023-04-15T19:04:48.134Z,75.89
2023-04-15T19:07:14.794Z,74.70
2023-04-15T19:09:41.843Z,77.00
2023-04-15T19:12:08.488Z,74.00
2023-04-15T19:14:35.005Z,70.02
2023-04-15T19:17:01.523Z,75.20
2023-04-15T19:19:29.313Z,72.53
2023-04-15T19:21:55.922Z,72.14
2023-04-15T19:24:22.417Z,73.81
2023-04-15T19:26:52.693Z,71.35
2023-04-15T19:29:19.170Z,71.63
2023-04-15T19:31:45.637Z,69.43
2023-04-15T19:34:12.063Z,70.97
2023-04-15T19:36:38.694Z,69.01
2023-04-15T19:39:06.329Z,71.07
2023-04-15T19:41:32.989Z,71.12
2023-04-15T19:44:00.119Z,70.16
2023-04-15T19:46:27.023Z,71.03
2023-04-15T19:48:54.848Z,70.56
2023-04-15T19:51:21.259Z,71.06
2023-04-15T19:53:49.533Z,71.16
2023-04-15T19:56:16.408Z,68.33
2023-04-15T19:58:46.412Z,68.29
2023-04-15T20:01:13.040Z,69.23
2023-04-15T20:03:39.677Z,67.31
2023-04-15T20:06:06.161Z,70.61
2023-04-15T20:08:32.566Z,68.07
2023-04-15T20:10:58.986Z,67.25
2023-04-15T20:13:25.417Z,67.55
2023-04-15T20:15:51.879Z,68.39
2023-04-15T20:18:18.369Z,68.69
2023-04-15T20:20:44.848Z,72.17
2023-04-15T20:23:11.257Z,67.53
2023-04-15T20:25:37.694Z,68.50
2023-04-15T20:28:04.145Z,71.65
2023-04-15T20:30:30.728Z,70.75
2023-04-15T20:32:57.356Z,70.89
2023-04-15T20:35:25.032Z,69.45
2023-04-15T20:37:51.434Z,70.00
2023-04-15T20:40:17.896Z,70.17
2023-04-15T20:42:44.382Z,70.42
2023-04-15T20:45:11.313Z,68.27
2023-04-15T20:47:37.836Z,69.03
2023-04-15T20:50:04.706Z,71.65
2023-04-15T20:52:31.314Z,72.23
2023-04-15T20:54:57.741Z,71.60
2023-04-15T20:57:24.663Z,72.10
2023-04-15T20:59:51.289Z,68.82
2023-04-15T21:02:18.068Z,73.51
2023-04-15T21:04:47.000Z,71.22
2023-04-15T21:07:13.392Z,73.62
2023-04-15T21:09:41.422Z,73.23
2023-04-15T21:12:08.011Z,70.81
2023-04-15T21:14:35.836Z,72.23
2023-04-15T21:17:09.237Z,74.06
2023-04-15T21:19:37.441Z,71.39
2023-04-15T21:22:03.913Z,72.93
2023-04-15T21:24:30.622Z,71.98
2023-04-15T21:26:57.223Z,70.37
2023-04-15T21:29:24.220Z,69.99
2023-04-15T21:31:50.784Z,68.58
2023-04-15T21:34:17.522Z,70.73
2023-04-15T21:36:43.949Z,70.71
2023-04-15T21:39:10.414Z,70.81
2023-04-15T21:41:37.068Z,70.87
2023-04-15T21:44:04.084Z,74.38
2023-04-15T21:46:33.333Z,70.47
2023-04-15T21:49:02.219Z,72.46
2023-04-15T21:51:28.705Z,72.47
2023-04-15T21:53:55.909Z,75.87
2023-04-15T21:56:24.139Z,74.23
2023-04-15T21:58:51.284Z,77.09
2023-04-15T22:01:17.779Z,78.61
2023-04-15T22:03:44.465Z,75.53
2023-04-15T22:06:13.520Z,77.40
2023-04-15T22:08:55.214Z,76.13
2023-04-15T22:11:27.259Z,72.63
2023-04-15T22:13:54.347Z,74.93
2023-04-15T22:16:21.128Z,70.27
2023-04-15T22:18:47.636Z,72.37
2023-04-15T22:21:14.278Z,77.48
2023-04-15T22:23:40.822Z,72.62
2023-04-15T22:26:07.386Z,70.75
2023-04-15T22:28:34.013Z,72.70
2023-04-15T22:31:00.584Z,70.45
2023-04-15T22:33:27.078Z,73.71
2023-04-15T22:35:53.479Z,71.29
2023-04-15T22:38:19.910Z,73.63
2023-04-15T22:40:46.830Z,74.03
2023-04-15T22:43:13.296Z,74.89
2023-04-15T22:45:39.712Z,76.79
2023-04-15T22:48:06.308Z,74.79
2023-04-15T22:50:32.786Z,77.22
2023-04-15T22:52:59.217Z,75.78
2023-04-15T22:55:25.615Z,78.87
2023-04-15T22:57:52.696Z,74.41
2023-04-15T23:00:19.187Z,77.76
2023-04-15T23:02:45.749Z,81.96
2023-04-15T23:05:12.640Z,78.98
2023-04-15T23:07:39.979Z,77.42
2023-04-15T23:10:07.960Z,76.88
2023-04-15T23:12:34.814Z,80.43
2023-04-15T23:15:01.420Z,79.11
2023-04-15T23:17:27.932Z,79.08
2023-04-15T23:19:54.352Z,78.00
2023-04-15T23:22:20.840Z,79.89
2023-04-15T23:24:47.328Z,76.78
2023-04-15T23:27:13.770Z,75.83
2023-04-15T23:29:40.445Z,76.81
2023-04-15T23:32:06.983Z,81.60
2023-04-15T23:34:33.477Z,83.05
2023-04-15T23:36:59.967Z,80.20
2023-04-15T23:39:26.486Z,79.71
2023-04-15T23:41:53.384Z,85.02
2023-04-15T23:44:19.976Z,81.97
2023-04-15T23:46:46.504Z,79.25
2023-04-15T23:49:13.080Z,81.43
2023-04-15T23:51:39.509Z,77.22
2023-04-15T23:54:05.937Z,79.79
2023-04-15T23:56:35.208Z,79.97
2023-04-15T23:59:01.617Z,80.15
